Main page
METAR-TAF:

METAR-TAF

Airports :

Pontoise, France

Pontoise – Cormeilles Aerodrome

latitude: 49-05-48N, longitude: 002-02-27E, elevation: 99 m

Current weather observation

The report was made 23 minutes ago, at 02:00 UTC
Wind 4 kt from the Northwest
Temperature 3°C
Humidity 93%
Pressure 1023 hPa
Visibility 10 km or more
Few clouds at a height of 1200 ft
Broken clouds at a height of 3100 ft
Broken clouds at a height of 5600 ft

METAR: LFPT 170200Z AUTO 32004KT 9999 FEW012 BKN031 BKN056 03/02 Q1023

Time: 03:23 (02:23 UTC)


TAF: missing

Weather observations and forecasts of more than 4000 airports (METAR and TAF reports).

The available stations are represented by yellow and red dots on the map.

Hover mouse over dot to see the name of the station.

Then click to see weather observations and forecasts.

To change the map : click on the green buttons with a black cross to zoom in, on the green button with a dash to zoom out, or on the green arrows for adjacent maps.


METAR-TAF: